sensor_id;sensor_type;location;lat;lon;timestamp;P1;durP1;ratioP1;P2;durP2;ratioP2
66567;SDS011;53422;49.296;6.900;2022-12-20T00:01:05;4.13;;;0.95;;
66567;SDS011;53422;49.296;6.900;2022-12-20T00:03:35;2.65;;;1.63;;
66567;SDS011;53422;49.296;6.900;2022-12-20T00:06:02;2.47;;;1.83;;
66567;SDS011;53422;49.296;6.900;2022-12-20T00:08:30;3.03;;;1.60;;
66567;SDS011;53422;49.296;6.900;2022-12-20T00:11:01;2.22;;;1.45;;
66567;SDS011;53422;49.296;6.900;2022-12-20T00:13:35;2.22;;;0.88;;
66567;SDS011;53422;49.296;6.900;2022-12-20T00:16:07;4.18;;;1.60;;
66567;SDS011;53422;49.296;6.900;2022-12-20T00:18:54;3.05;;;2.03;;
66567;SDS011;53422;49.296;6.900;2022-12-20T00:21:23;2.60;;;1.70;;
66567;SDS011;53422;49.296;6.900;2022-12-20T00:34:19;3.72;;;1.30;;
66567;SDS011;53422;49.296;6.900;2022-12-20T00:36:47;2.45;;;1.70;;
66567;SDS011;53422;49.296;6.900;2022-12-20T00:41:41;2.88;;;1.33;;
66567;SDS011;53422;49.296;6.900;2022-12-20T00:44:17;2.97;;;1.60;;
66567;SDS011;53422;49.296;6.900;2022-12-20T00:49:22;3.30;;;1.92;;
66567;SDS011;53422;49.296;6.900;2022-12-20T00:51:53;3.00;;;1.85;;
66567;SDS011;53422;49.296;6.900;2022-12-20T00:54:22;3.72;;;1.70;;
66567;SDS011;53422;49.296;6.900;2022-12-20T00:56:53;2.58;;;1.63;;
66567;SDS011;53422;49.296;6.900;2022-12-20T00:59:21;4.13;;;1.52;;
66567;SDS011;53422;49.296;6.900;2022-12-20T01:01:49;3.08;;;1.85;;
66567;SDS011;53422;49.296;6.900;2022-12-20T01:19:57;2.40;;;1.38;;
66567;SDS011;53422;49.296;6.900;2022-12-20T01:22:25;3.28;;;1.90;;
66567;SDS011;53422;49.296;6.900;2022-12-20T01:24:54;2.38;;;1.80;;
66567;SDS011;53422;49.296;6.900;2022-12-20T01:27:22;2.88;;;1.60;;
66567;SDS011;53422;49.296;6.900;2022-12-20T01:29:50;2.95;;;2.10;;
66567;SDS011;53422;49.296;6.900;2022-12-20T01:32:27;3.58;;;1.63;;
66567;SDS011;53422;49.296;6.900;2022-12-20T01:34:56;3.22;;;1.70;;
66567;SDS011;53422;49.296;6.900;2022-12-20T01:37:25;2.92;;;1.88;;
66567;SDS011;53422;49.296;6.900;2022-12-20T01:39:53;3.63;;;1.75;;
66567;SDS011;53422;49.296;6.900;2022-12-20T01:42:23;3.30;;;1.77;;
66567;SDS011;53422;49.296;6.900;2022-12-20T01:44:54;3.58;;;1.50;;
66567;SDS011;53422;49.296;6.900;2022-12-20T01:47:23;5.10;;;2.00;;
66567;SDS011;53422;49.296;6.900;2022-12-20T01:49:55;4.25;;;1.70;;
66567;SDS011;53422;49.296;6.900;2022-12-20T01:52:39;2.00;;;1.10;;
66567;SDS011;53422;49.296;6.900;2022-12-20T01:55:22;5.43;;;2.10;;
66567;SDS011;53422;49.296;6.900;2022-12-20T01:57:57;4.25;;;2.03;;
66567;SDS011;53422;49.296;6.900;2022-12-20T02:00:33;3.08;;;1.83;;
66567;SDS011;53422;49.296;6.900;2022-12-20T02:03:04;2.67;;;1.27;;
66567;SDS011;53422;49.296;6.900;2022-12-20T02:05:39;2.80;;;1.70;;
66567;SDS011;53422;49.296;6.900;2022-12-20T02:08:09;2.25;;;1.45;;
66567;SDS011;53422;49.296;6.900;2022-12-20T02:13:34;4.13;;;1.60;;
66567;SDS011;53422;49.296;6.900;2022-12-20T02:16:23;3.83;;;2.03;;
66567;SDS011;53422;49.296;6.900;2022-12-20T02:31:42;3.75;;;1.90;;
66567;SDS011;53422;49.296;6.900;2022-12-20T02:34:32;3.03;;;1.35;;
66567;SDS011;53422;49.296;6.900;2022-12-20T02:43:42;2.60;;;1.50;;
66567;SDS011;53422;49.296;6.900;2022-12-20T02:46:59;2.20;;;1.52;;
66567;SDS011;53422;49.296;6.900;2022-12-20T02:49:30;2.97;;;1.48;;
66567;SDS011;53422;49.296;6.900;2022-12-20T02:52:13;2.35;;;1.63;;
66567;SDS011;53422;49.296;6.900;2022-12-20T02:54:40;3.30;;;3.03;;
66567;SDS011;53422;49.296;6.900;2022-12-20T03:00:30;5.22;;;1.88;;
66567;SDS011;53422;49.296;6.900;2022-12-20T03:03:00;3.78;;;1.63;;
66567;SDS011;53422;49.296;6.900;2022-12-20T03:05:46;5.20;;;1.85;;
66567;SDS011;53422;49.296;6.900;2022-12-20T03:08:14;2.22;;;1.55;;
66567;SDS011;53422;49.296;6.900;2022-12-20T03:10:44;5.40;;;1.58;;
66567;SDS011;53422;49.296;6.900;2022-12-20T03:16:29;3.33;;;1.67;;
66567;SDS011;53422;49.296;6.900;2022-12-20T03:22:42;2.55;;;1.45;;
66567;SDS011;53422;49.296;6.900;2022-12-20T03:25:15;2.40;;;1.60;;
66567;SDS011;53422;49.296;6.900;2022-12-20T03:27:44;2.47;;;1.60;;
66567;SDS011;53422;49.296;6.900;2022-12-20T03:30:14;3.45;;;1.98;;
66567;SDS011;53422;49.296;6.900;2022-12-20T03:33:07;2.95;;;1.65;;
66567;SDS011;53422;49.296;6.900;2022-12-20T03:35:56;3.25;;;1.65;;
66567;SDS011;53422;49.296;6.900;2022-12-20T03:38:25;2.13;;;1.45;;
66567;SDS011;53422;49.296;6.900;2022-12-20T03:40:53;3.53;;;1.40;;
66567;SDS011;53422;49.296;6.900;2022-12-20T03:43:21;2.65;;;1.52;;
66567;SDS011;53422;49.296;6.900;2022-12-20T03:45:48;2.88;;;2.50;;
66567;SDS011;53422;49.296;6.900;2022-12-20T03:48:17;2.17;;;1.75;;
66567;SDS011;53422;49.296;6.900;2022-12-20T03:50:44;4.22;;;1.75;;
66567;SDS011;53422;49.296;6.900;2022-12-20T03:53:17;2.35;;;1.60;;
66567;SDS011;53422;49.296;6.900;2022-12-20T03:55:45;2.65;;;1.40;;
66567;SDS011;53422;49.296;6.900;2022-12-20T03:58:12;2.17;;;1.00;;
66567;SDS011;53422;49.296;6.900;2022-12-20T04:00:49;2.13;;;0.93;;
66567;SDS011;53422;49.296;6.900;2022-12-20T04:03:19;2.47;;;1.77;;
66567;SDS011;53422;49.296;6.900;2022-12-20T04:05:46;5.97;;;1.85;;
66567;SDS011;53422;49.296;6.900;2022-12-20T04:08:15;2.35;;;1.77;;
66567;SDS011;53422;49.296;6.900;2022-12-20T04:10:42;3.58;;;1.83;;
66567;SDS011;53422;49.296;6.900;2022-12-20T04:13:35;2.25;;;0.95;;
66567;SDS011;53422;49.296;6.900;2022-12-20T04:16:04;2.47;;;1.60;;
66567;SDS011;53422;49.296;6.900;2022-12-20T04:18:32;1.98;;;1.05;;
66567;SDS011;53422;49.296;6.900;2022-12-20T04:21:00;3.15;;;2.08;;
66567;SDS011;53422;49.296;6.900;2022-12-20T04:23:29;4.82;;;1.15;;
66567;SDS011;53422;49.296;6.900;2022-12-20T04:30:10;4.93;;;0.88;;
66567;SDS011;53422;49.296;6.900;2022-12-20T04:36:49;2.30;;;1.50;;
66567;SDS011;53422;49.296;6.900;2022-12-20T04:40:05;3.17;;;1.20;;
66567;SDS011;53422;49.296;6.900;2022-12-20T04:43:17;1.67;;;1.20;;
66567;SDS011;53422;49.296;6.900;2022-12-20T04:45:57;4.35;;;1.50;;
66567;SDS011;53422;49.296;6.900;2022-12-20T04:48:45;3.10;;;1.63;;
66567;SDS011;53422;49.296;6.900;2022-12-20T04:51:19;4.50;;;1.85;;
66567;SDS011;53422;49.296;6.900;2022-12-20T04:53:51;3.17;;;1.88;;
66567;SDS011;53422;49.296;6.900;2022-12-20T04:56:24;3.42;;;1.73;;
66567;SDS011;53422;49.296;6.900;2022-12-20T04:58:54;2.03;;;1.48;;
66567;SDS011;53422;49.296;6.900;2022-12-20T05:01:32;2.58;;;1.52;;
66567;SDS011;53422;49.296;6.900;2022-12-20T05:14:05;2.22;;;1.30;;
66567;SDS011;53422;49.296;6.900;2022-12-20T05:43:30;2.83;;;1.48;;
66567;SDS011;53422;49.296;6.900;2022-12-20T05:45:56;3.47;;;2.10;;
66567;SDS011;53422;49.296;6.900;2022-12-20T05:48:21;4.00;;;2.58;;
66567;SDS011;53422;49.296;6.900;2022-12-20T05:54:09;3.80;;;1.90;;
66567;SDS011;53422;49.296;6.900;2022-12-20T06:02:55;3.58;;;1.90;;
66567;SDS011;53422;49.296;6.900;2022-12-20T06:05:21;2.85;;;1.42;;
66567;SDS011;53422;49.296;6.900;2022-12-20T06:14:31;3.53;;;1.83;;
66567;SDS011;53422;49.296;6.900;2022-12-20T11:11:59;1.83;;;1.02;;
66567;SDS011;53422;49.296;6.900;2022-12-20T11:14:40;2.90;;;1.70;;
66567;SDS011;53422;49.296;6.900;2022-12-20T11:34:22;3.20;;;1.88;;
66567;SDS011;53422;49.296;6.900;2022-12-20T11:43:03;3.17;;;1.60;;
66567;SDS011;53422;49.296;6.900;2022-12-20T11:51:36;3.17;;;2.15;;
66567;SDS011;53422;49.296;6.900;2022-12-20T11:54:16;5.55;;;2.22;;
66567;SDS011;53422;49.296;6.900;2022-12-20T11:56:56;8.18;;;2.17;;
66567;SDS011;53422;49.296;6.900;2022-12-20T12:02:33;2.08;;;0.93;;
66567;SDS011;53422;49.296;6.900;2022-12-20T12:05:04;3.15;;;2.08;;
66567;SDS011;53422;49.296;6.900;2022-12-20T12:07:38;4.35;;;1.98;;
66567;SDS011;53422;49.296;6.900;2022-12-20T12:10:13;2.25;;;1.70;;
66567;SDS011;53422;49.296;6.900;2022-12-20T12:12:44;3.47;;;1.67;;
66567;SDS011;53422;49.296;6.900;2022-12-20T12:17:47;2.10;;;1.45;;
66567;SDS011;53422;49.296;6.900;2022-12-20T12:28:14;4.15;;;1.63;;
66567;SDS011;53422;49.296;6.900;2022-12-20T12:30:49;2.17;;;1.35;;
66567;SDS011;53422;49.296;6.900;2022-12-20T12:33:33;5.15;;;1.67;;
66567;SDS011;53422;49.296;6.900;2022-12-20T12:36:15;3.05;;;1.92;;
66567;SDS011;53422;49.296;6.900;2022-12-20T12:42:15;3.45;;;1.60;;
66567;SDS011;53422;49.296;6.900;2022-12-20T12:44:55;3.53;;;1.80;;
66567;SDS011;53422;49.296;6.900;2022-12-20T12:47:32;3.72;;;2.20;;
66567;SDS011;53422;49.296;6.900;2022-12-20T12:49:59;4.63;;;1.80;;
66567;SDS011;53422;49.296;6.900;2022-12-20T12:52:34;2.78;;;1.95;;
66567;SDS011;53422;49.296;6.900;2022-12-20T13:04:07;6.10;;;2.00;;
66567;SDS011;53422;49.296;6.900;2022-12-20T13:09:08;2.40;;;1.65;;
66567;SDS011;53422;49.296;6.900;2022-12-20T13:11:41;2.90;;;1.73;;
66567;SDS011;53422;49.296;6.900;2022-12-20T13:16:44;5.53;;;1.73;;
66567;SDS011;53422;49.296;6.900;2022-12-20T13:19:14;2.83;;;1.30;;
66567;SDS011;53422;49.296;6.900;2022-12-20T13:21:45;4.78;;;1.77;;
66567;SDS011;53422;49.296;6.900;2022-12-20T13:24:30;2.95;;;1.38;;
66567;SDS011;53422;49.296;6.900;2022-12-20T13:29:27;2.85;;;1.23;;
66567;SDS011;53422;49.296;6.900;2022-12-20T13:31:59;4.13;;;2.08;;
66567;SDS011;53422;49.296;6.900;2022-12-20T13:34:38;1.50;;;1.05;;
66567;SDS011;53422;49.296;6.900;2022-12-20T13:37:28;2.97;;;1.63;;
66567;SDS011;53422;49.296;6.900;2022-12-20T13:40:18;3.67;;;1.80;;
66567;SDS011;53422;49.296;6.900;2022-12-20T13:42:56;5.25;;;1.77;;
66567;SDS011;53422;49.296;6.900;2022-12-20T13:45:26;2.28;;;1.63;;
66567;SDS011;53422;49.296;6.900;2022-12-20T13:47:56;2.47;;;1.65;;
66567;SDS011;53422;49.296;6.900;2022-12-20T13:50:31;2.47;;;1.60;;
66567;SDS011;53422;49.296;6.900;2022-12-20T13:53:03;5.53;;;1.67;;
66567;SDS011;53422;49.296;6.900;2022-12-20T13:55:31;2.50;;;2.08;;
66567;SDS011;53422;49.296;6.900;2022-12-20T13:58:10;5.85;;;1.98;;
66567;SDS011;53422;49.296;6.900;2022-12-20T14:00:44;5.53;;;1.90;;
66567;SDS011;53422;49.296;6.900;2022-12-20T14:03:29;2.10;;;1.30;;
66567;SDS011;53422;49.296;6.900;2022-12-20T14:06:02;3.38;;;1.77;;
66567;SDS011;53422;49.296;6.900;2022-12-20T14:08:33;4.05;;;2.40;;
66567;SDS011;53422;49.296;6.900;2022-12-20T14:11:06;4.13;;;1.70;;
66567;SDS011;53422;49.296;6.900;2022-12-20T14:13:51;3.05;;;1.90;;
66567;SDS011;53422;49.296;6.900;2022-12-20T14:16:23;3.42;;;1.85;;
66567;SDS011;53422;49.296;6.900;2022-12-20T14:21:22;2.17;;;1.35;;
66567;SDS011;53422;49.296;6.900;2022-12-20T14:23:50;3.88;;;1.73;;
66567;SDS011;53422;49.296;6.900;2022-12-20T14:26:18;3.40;;;2.00;;
66567;SDS011;53422;49.296;6.900;2022-12-20T14:28:50;3.28;;;1.80;;
66567;SDS011;53422;49.296;6.900;2022-12-20T14:36:35;2.50;;;1.65;;
66567;SDS011;53422;49.296;6.900;2022-12-20T14:41:57;2.67;;;1.25;;
66567;SDS011;53422;49.296;6.900;2022-12-20T14:44:24;3.63;;;1.90;;
66567;SDS011;53422;49.296;6.900;2022-12-20T14:46:52;5.38;;;2.35;;
66567;SDS011;53422;49.296;6.900;2022-12-20T14:51:48;2.95;;;1.70;;
66567;SDS011;53422;49.296;6.900;2022-12-20T14:57:09;5.25;;;1.60;;
66567;SDS011;53422;49.296;6.900;2022-12-20T14:59:44;2.75;;;1.73;;
66567;SDS011;53422;49.296;6.900;2022-12-20T15:02:33;3.60;;;2.40;;
66567;SDS011;53422;49.296;6.900;2022-12-20T15:13:15;2.15;;;1.50;;
66567;SDS011;53422;49.296;6.900;2022-12-20T15:15:43;2.08;;;1.42;;
66567;SDS011;53422;49.296;6.900;2022-12-20T15:18:12;5.60;;;1.90;;
66567;SDS011;53422;49.296;6.900;2022-12-20T15:20:41;3.03;;;1.65;;
66567;SDS011;53422;49.296;6.900;2022-12-20T15:23:11;3.75;;;2.10;;
66567;SDS011;53422;49.296;6.900;2022-12-20T15:25:38;3.78;;;1.70;;
66567;SDS011;53422;49.296;6.900;2022-12-20T15:28:11;4.05;;;1.80;;
66567;SDS011;53422;49.296;6.900;2022-12-20T15:30:47;3.83;;;1.88;;
66567;SDS011;53422;49.296;6.900;2022-12-20T15:33:16;2.50;;;1.70;;
66567;SDS011;53422;49.296;6.900;2022-12-20T15:35:44;5.40;;;2.72;;
66567;SDS011;53422;49.296;6.900;2022-12-20T15:38:17;3.97;;;1.70;;
66567;SDS011;53422;49.296;6.900;2022-12-20T15:40:45;2.28;;;1.33;;
66567;SDS011;53422;49.296;6.900;2022-12-20T15:43:13;4.70;;;1.40;;
66567;SDS011;53422;49.296;6.900;2022-12-20T15:45:44;3.20;;;1.80;;
66567;SDS011;53422;49.296;6.900;2022-12-20T15:48:16;5.38;;;1.85;;
66567;SDS011;53422;49.296;6.900;2022-12-20T15:50:53;3.08;;;1.80;;
66567;SDS011;53422;49.296;6.900;2022-12-20T15:53:25;3.45;;;1.63;;
66567;SDS011;53422;49.296;6.900;2022-12-20T15:55:58;5.75;;;1.75;;
66567;SDS011;53422;49.296;6.900;2022-12-20T15:58:24;3.97;;;1.67;;
66567;SDS011;53422;49.296;6.900;2022-12-20T16:00:54;4.53;;;2.53;;
66567;SDS011;53422;49.296;6.900;2022-12-20T16:03:25;6.38;;;2.10;;
66567;SDS011;53422;49.296;6.900;2022-12-20T16:05:55;3.70;;;1.30;;
66567;SDS011;53422;49.296;6.900;2022-12-20T16:08:21;7.00;;;2.38;;
66567;SDS011;53422;49.296;6.900;2022-12-20T16:10:47;4.72;;;2.25;;
66567;SDS011;53422;49.296;6.900;2022-12-20T16:13:16;3.95;;;2.20;;
66567;SDS011;53422;49.296;6.900;2022-12-20T16:15:48;3.95;;;2.33;;
66567;SDS011;53422;49.296;6.900;2022-12-20T16:18:14;6.07;;;2.78;;
66567;SDS011;53422;49.296;6.900;2022-12-20T16:20:40;4.93;;;2.45;;
66567;SDS011;53422;49.296;6.900;2022-12-20T16:23:14;5.95;;;2.17;;
66567;SDS011;53422;49.296;6.900;2022-12-20T16:25:42;5.05;;;2.03;;
66567;SDS011;53422;49.296;6.900;2022-12-20T16:28:08;2.88;;;2.10;;
66567;SDS011;53422;49.296;6.900;2022-12-20T16:30:34;3.28;;;2.00;;
66567;SDS011;53422;49.296;6.900;2022-12-20T16:33:00;5.32;;;2.25;;
66567;SDS011;53422;49.296;6.900;2022-12-20T16:35:28;3.35;;;2.08;;
66567;SDS011;53422;49.296;6.900;2022-12-20T16:37:55;4.22;;;2.28;;
66567;SDS011;53422;49.296;6.900;2022-12-20T16:40:23;4.57;;;2.40;;
66567;SDS011;53422;49.296;6.900;2022-12-20T16:42:51;3.60;;;2.40;;
66567;SDS011;53422;49.296;6.900;2022-12-20T16:45:17;4.45;;;2.65;;
66567;SDS011;53422;49.296;6.900;2022-12-20T16:47:46;3.70;;;1.90;;
66567;SDS011;53422;49.296;6.900;2022-12-20T16:50:12;4.32;;;2.10;;
66567;SDS011;53422;49.296;6.900;2022-12-20T16:52:38;5.47;;;2.17;;
66567;SDS011;53422;49.296;6.900;2022-12-20T16:55:05;4.57;;;1.88;;
66567;SDS011;53422;49.296;6.900;2022-12-20T16:57:32;3.08;;;2.17;;
66567;SDS011;53422;49.296;6.900;2022-12-20T16:59:58;4.22;;;2.17;;
66567;SDS011;53422;49.296;6.900;2022-12-20T17:02:28;5.15;;;2.58;;
66567;SDS011;53422;49.296;6.900;2022-12-20T17:04:56;3.78;;;1.92;;
66567;SDS011;53422;49.296;6.900;2022-12-20T17:07:23;5.70;;;2.65;;
66567;SDS011;53422;49.296;6.900;2022-12-20T17:09:49;2.60;;;1.67;;
66567;SDS011;53422;49.296;6.900;2022-12-20T17:12:18;6.28;;;2.47;;
66567;SDS011;53422;49.296;6.900;2022-12-20T17:14:46;2.63;;;1.58;;
66567;SDS011;53422;49.296;6.900;2022-12-20T17:17:13;5.70;;;1.98;;
66567;SDS011;53422;49.296;6.900;2022-12-20T17:19:38;3.20;;;1.70;;
66567;SDS011;53422;49.296;6.900;2022-12-20T17:22:04;4.40;;;2.08;;
66567;SDS011;53422;49.296;6.900;2022-12-20T17:24:31;4.63;;;2.40;;
66567;SDS011;53422;49.296;6.900;2022-12-20T17:26:56;4.85;;;1.80;;
66567;SDS011;53422;49.296;6.900;2022-12-20T17:29:22;3.30;;;2.35;;
66567;SDS011;53422;49.296;6.900;2022-12-20T17:31:48;4.97;;;2.13;;
66567;SDS011;53422;49.296;6.900;2022-12-20T17:36:44;3.97;;;2.42;;
66567;SDS011;53422;49.296;6.900;2022-12-20T17:39:11;6.05;;;2.40;;
66567;SDS011;53422;49.296;6.900;2022-12-20T17:41:37;5.60;;;2.40;;
66567;SDS011;53422;49.296;6.900;2022-12-20T17:44:03;7.85;;;2.30;;
66567;SDS011;53422;49.296;6.900;2022-12-20T17:46:30;5.03;;;3.15;;
66567;SDS011;53422;49.296;6.900;2022-12-20T17:48:56;4.25;;;2.25;;
66567;SDS011;53422;49.296;6.900;2022-12-20T17:51:26;3.72;;;2.53;;
66567;SDS011;53422;49.296;6.900;2022-12-20T17:53:57;5.95;;;2.10;;
66567;SDS011;53422;49.296;6.900;2022-12-20T17:56:26;5.45;;;2.00;;
66567;SDS011;53422;49.296;6.900;2022-12-20T17:58:54;3.38;;;2.08;;
66567;SDS011;53422;49.296;6.900;2022-12-20T18:01:21;3.08;;;1.88;;
66567;SDS011;53422;49.296;6.900;2022-12-20T18:06:15;4.95;;;2.03;;
66567;SDS011;53422;49.296;6.900;2022-12-20T18:08:41;3.58;;;1.77;;
66567;SDS011;53422;49.296;6.900;2022-12-20T18:11:07;4.60;;;2.20;;
66567;SDS011;53422;49.296;6.900;2022-12-20T18:13:34;2.95;;;2.15;;
66567;SDS011;53422;49.296;6.900;2022-12-20T18:16:04;3.83;;;2.05;;
66567;SDS011;53422;49.296;6.900;2022-12-20T18:18:30;4.45;;;2.33;;
66567;SDS011;53422;49.296;6.900;2022-12-20T18:21:03;3.58;;;2.20;;
66567;SDS011;53422;49.296;6.900;2022-12-20T18:23:31;4.53;;;2.83;;
66567;SDS011;53422;49.296;6.900;2022-12-20T18:26:04;4.32;;;2.00;;
66567;SDS011;53422;49.296;6.900;2022-12-20T18:28:34;3.88;;;2.20;;
66567;SDS011;53422;49.296;6.900;2022-12-20T18:31:01;5.32;;;2.25;;
66567;SDS011;53422;49.296;6.900;2022-12-20T18:33:28;7.97;;;3.17;;
66567;SDS011;53422;49.296;6.900;2022-12-20T18:38:28;3.70;;;2.83;;
66567;SDS011;53422;49.296;6.900;2022-12-20T18:40:56;3.13;;;2.22;;
66567;SDS011;53422;49.296;6.900;2022-12-20T18:43:22;4.20;;;1.73;;
66567;SDS011;53422;49.296;6.900;2022-12-20T18:45:48;4.30;;;2.33;;
66567;SDS011;53422;49.296;6.900;2022-12-20T18:48:14;5.20;;;2.40;;
66567;SDS011;53422;49.296;6.900;2022-12-20T18:50:39;5.00;;;2.03;;
66567;SDS011;53422;49.296;6.900;2022-12-20T18:53:05;6.00;;;2.55;;
66567;SDS011;53422;49.296;6.900;2022-12-20T18:55:31;4.82;;;2.35;;
66567;SDS011;53422;49.296;6.900;2022-12-20T18:58:00;3.90;;;1.92;;
66567;SDS011;53422;49.296;6.900;2022-12-20T19:00:25;4.30;;;2.75;;
66567;SDS011;53422;49.296;6.900;2022-12-20T19:02:51;4.55;;;2.25;;
66567;SDS011;53422;49.296;6.900;2022-12-20T19:05:16;4.78;;;2.55;;
66567;SDS011;53422;49.296;6.900;2022-12-20T19:07:42;6.97;;;2.53;;
66567;SDS011;53422;49.296;6.900;2022-12-20T19:10:08;3.67;;;2.53;;
66567;SDS011;53422;49.296;6.900;2022-12-20T19:12:34;3.88;;;2.78;;
66567;SDS011;53422;49.296;6.900;2022-12-20T19:15:00;6.43;;;3.00;;
66567;SDS011;53422;49.296;6.900;2022-12-20T19:17:25;4.05;;;2.35;;
66567;SDS011;53422;49.296;6.900;2022-12-20T19:19:51;5.75;;;3.13;;
66567;SDS011;53422;49.296;6.900;2022-12-20T19:22:17;3.88;;;2.85;;
66567;SDS011;53422;49.296;6.900;2022-12-20T19:24:43;5.40;;;2.50;;
66567;SDS011;53422;49.296;6.900;2022-12-20T19:27:09;4.43;;;2.80;;
66567;SDS011;53422;49.296;6.900;2022-12-20T19:29:34;4.40;;;2.10;;
66567;SDS011;53422;49.296;6.900;2022-12-20T19:32:00;4.78;;;2.58;;
66567;SDS011;53422;49.296;6.900;2022-12-20T19:34:26;5.38;;;2.38;;
66567;SDS011;53422;49.296;6.900;2022-12-20T19:36:52;3.85;;;2.38;;
66567;SDS011;53422;49.296;6.900;2022-12-20T19:39:18;8.27;;;2.25;;
66567;SDS011;53422;49.296;6.900;2022-12-20T19:41:46;4.68;;;3.17;;
66567;SDS011;53422;49.296;6.900;2022-12-20T19:44:12;6.43;;;2.92;;
66567;SDS011;53422;49.296;6.900;2022-12-20T19:46:38;7.55;;;2.78;;
66567;SDS011;53422;49.296;6.900;2022-12-20T19:49:03;4.78;;;3.00;;
66567;SDS011;53422;49.296;6.900;2022-12-20T19:51:30;4.85;;;2.47;;
66567;SDS011;53422;49.296;6.900;2022-12-20T19:53:56;5.25;;;2.72;;
66567;SDS011;53422;49.296;6.900;2022-12-20T19:56:24;7.03;;;3.03;;
66567;SDS011;53422;49.296;6.900;2022-12-20T20:01:17;6.38;;;2.50;;
66567;SDS011;53422;49.296;6.900;2022-12-20T20:03:49;6.05;;;3.15;;
66567;SDS011;53422;49.296;6.900;2022-12-20T20:06:16;6.60;;;3.00;;
66567;SDS011;53422;49.296;6.900;2022-12-20T20:08:42;6.25;;;3.17;;
66567;SDS011;53422;49.296;6.900;2022-12-20T20:11:09;6.13;;;3.22;;
66567;SDS011;53422;49.296;6.900;2022-12-20T20:13:36;6.65;;;3.25;;
66567;SDS011;53422;49.296;6.900;2022-12-20T20:16:03;4.88;;;2.83;;
66567;SDS011;53422;49.296;6.900;2022-12-20T20:18:31;6.40;;;3.45;;
66567;SDS011;53422;49.296;6.900;2022-12-20T20:20:58;7.43;;;2.75;;
66567;SDS011;53422;49.296;6.900;2022-12-20T20:23:24;5.53;;;3.05;;
66567;SDS011;53422;49.296;6.900;2022-12-20T20:25:52;7.55;;;3.13;;
66567;SDS011;53422;49.296;6.900;2022-12-20T20:28:21;6.03;;;2.63;;
66567;SDS011;53422;49.296;6.900;2022-12-20T20:30:47;4.35;;;2.63;;
66567;SDS011;53422;49.296;6.900;2022-12-20T20:33:14;4.45;;;2.75;;
66567;SDS011;53422;49.296;6.900;2022-12-20T20:35:40;5.82;;;2.72;;
66567;SDS011;53422;49.296;6.900;2022-12-20T20:38:06;4.72;;;2.72;;
66567;SDS011;53422;49.296;6.900;2022-12-20T20:40:34;6.03;;;3.10;;
66567;SDS011;53422;49.296;6.900;2022-12-20T20:43:00;6.70;;;3.22;;
66567;SDS011;53422;49.296;6.900;2022-12-20T20:45:26;5.30;;;3.45;;
66567;SDS011;53422;49.296;6.900;2022-12-20T20:47:52;5.00;;;2.65;;
66567;SDS011;53422;49.296;6.900;2022-12-20T20:50:19;5.82;;;2.38;;
66567;SDS011;53422;49.296;6.900;2022-12-20T20:52:45;4.53;;;2.88;;
66567;SDS011;53422;49.296;6.900;2022-12-20T20:55:11;6.03;;;3.17;;
66567;SDS011;53422;49.296;6.900;2022-12-20T20:57:37;4.35;;;2.70;;
66567;SDS011;53422;49.296;6.900;2022-12-20T21:00:03;6.53;;;3.03;;
66567;SDS011;53422;49.296;6.900;2022-12-20T21:02:30;5.38;;;2.90;;
66567;SDS011;53422;49.296;6.900;2022-12-20T21:04:56;4.10;;;2.58;;
66567;SDS011;53422;49.296;6.900;2022-12-20T21:07:22;3.60;;;2.50;;
66567;SDS011;53422;49.296;6.900;2022-12-20T21:09:47;4.40;;;2.72;;
66567;SDS011;53422;49.296;6.900;2022-12-20T21:12:13;4.57;;;2.85;;
66567;SDS011;53422;49.296;6.900;2022-12-20T21:14:39;6.90;;;2.95;;
66567;SDS011;53422;49.296;6.900;2022-12-20T21:17:05;2.95;;;2.25;;
66567;SDS011;53422;49.296;6.900;2022-12-20T21:19:31;4.10;;;2.17;;
66567;SDS011;53422;49.296;6.900;2022-12-20T21:21:57;6.93;;;2.95;;
66567;SDS011;53422;49.296;6.900;2022-12-20T21:24:22;7.25;;;3.03;;
66567;SDS011;53422;49.296;6.900;2022-12-20T21:26:48;3.75;;;2.83;;
66567;SDS011;53422;49.296;6.900;2022-12-20T21:29:15;7.40;;;3.95;;
66567;SDS011;53422;49.296;6.900;2022-12-20T21:31:41;5.35;;;2.80;;
66567;SDS011;53422;49.296;6.900;2022-12-20T21:34:07;8.02;;;4.13;;
66567;SDS011;53422;49.296;6.900;2022-12-20T21:36:32;6.68;;;3.60;;
66567;SDS011;53422;49.296;6.900;2022-12-20T21:38:59;4.13;;;2.38;;
66567;SDS011;53422;49.296;6.900;2022-12-20T21:41:26;5.78;;;3.42;;
66567;SDS011;53422;49.296;6.900;2022-12-20T21:43:59;5.25;;;2.90;;
66567;SDS011;53422;49.296;6.900;2022-12-20T21:46:26;5.28;;;2.95;;
66567;SDS011;53422;49.296;6.900;2022-12-20T21:48:52;5.68;;;3.38;;
66567;SDS011;53422;49.296;6.900;2022-12-20T21:51:19;5.75;;;3.67;;
66567;SDS011;53422;49.296;6.900;2022-12-20T21:53:50;4.68;;;3.30;;
66567;SDS011;53422;49.296;6.900;2022-12-20T21:56:18;5.20;;;2.63;;
66567;SDS011;53422;49.296;6.900;2022-12-20T21:58:44;4.80;;;2.67;;
66567;SDS011;53422;49.296;6.900;2022-12-20T22:01:11;8.75;;;3.85;;
66567;SDS011;53422;49.296;6.900;2022-12-20T22:03:40;4.40;;;3.00;;
66567;SDS011;53422;49.296;6.900;2022-12-20T22:06:06;7.18;;;3.50;;
66567;SDS011;53422;49.296;6.900;2022-12-20T22:08:32;6.95;;;3.05;;
66567;SDS011;53422;49.296;6.900;2022-12-20T22:10:59;6.72;;;2.80;;
66567;SDS011;53422;49.296;6.900;2022-12-20T22:13:30;4.90;;;2.78;;
66567;SDS011;53422;49.296;6.900;2022-12-20T22:15:56;5.85;;;2.72;;
66567;SDS011;53422;49.296;6.900;2022-12-20T22:18:22;6.80;;;3.17;;
66567;SDS011;53422;49.296;6.900;2022-12-20T22:20:49;4.82;;;2.88;;
66567;SDS011;53422;49.296;6.900;2022-12-20T22:23:14;5.22;;;3.30;;
66567;SDS011;53422;49.296;6.900;2022-12-20T22:25:40;6.40;;;3.63;;
66567;SDS011;53422;49.296;6.900;2022-12-20T22:28:06;5.32;;;3.50;;
66567;SDS011;53422;49.296;6.900;2022-12-20T22:30:33;7.47;;;3.10;;
66567;SDS011;53422;49.296;6.900;2022-12-20T22:32:59;6.07;;;3.22;;
66567;SDS011;53422;49.296;6.900;2022-12-20T22:35:24;7.95;;;3.85;;
66567;SDS011;53422;49.296;6.900;2022-12-20T22:37:50;6.05;;;3.60;;
66567;SDS011;53422;49.296;6.900;2022-12-20T22:40:17;6.15;;;3.13;;
66567;SDS011;53422;49.296;6.900;2022-12-20T22:42:43;5.32;;;3.47;;
66567;SDS011;53422;49.296;6.900;2022-12-20T22:45:09;6.72;;;4.22;;
66567;SDS011;53422;49.296;6.900;2022-12-20T22:47:35;6.10;;;3.83;;
66567;SDS011;53422;49.296;6.900;2022-12-20T22:50:00;6.07;;;3.55;;
66567;SDS011;53422;49.296;6.900;2022-12-20T22:52:27;6.80;;;3.53;;
66567;SDS011;53422;49.296;6.900;2022-12-20T22:54:53;5.38;;;3.10;;
66567;SDS011;53422;49.296;6.900;2022-12-20T22:57:19;7.88;;;4.03;;
66567;SDS011;53422;49.296;6.900;2022-12-20T22:59:44;6.07;;;3.30;;
66567;SDS011;53422;49.296;6.900;2022-12-20T23:02:10;6.88;;;4.22;;
66567;SDS011;53422;49.296;6.900;2022-12-20T23:04:36;5.07;;;2.63;;
66567;SDS011;53422;49.296;6.900;2022-12-20T23:07:01;5.85;;;3.40;;
66567;SDS011;53422;49.296;6.900;2022-12-20T23:09:27;6.30;;;3.42;;
66567;SDS011;53422;49.296;6.900;2022-12-20T23:11:53;9.13;;;4.05;;
66567;SDS011;53422;49.296;6.900;2022-12-20T23:14:37;6.75;;;3.38;;
66567;SDS011;53422;49.296;6.900;2022-12-20T23:17:21;5.60;;;3.08;;
66567;SDS011;53422;49.296;6.900;2022-12-20T23:19:46;5.15;;;3.38;;
66567;SDS011;53422;49.296;6.900;2022-12-20T23:22:30;5.63;;;3.65;;
66567;SDS011;53422;49.296;6.900;2022-12-20T23:27:36;6.13;;;4.28;;
66567;SDS011;53422;49.296;6.900;2022-12-20T23:30:03;8.45;;;3.53;;
66567;SDS011;53422;49.296;6.900;2022-12-20T23:32:30;5.65;;;3.80;;
66567;SDS011;53422;49.296;6.900;2022-12-20T23:34:56;9.52;;;3.72;;
66567;SDS011;53422;49.296;6.900;2022-12-20T23:37:22;8.15;;;3.92;;
66567;SDS011;53422;49.296;6.900;2022-12-20T23:39:47;8.60;;;4.10;;
66567;SDS011;53422;49.296;6.900;2022-12-20T23:42:13;4.40;;;3.17;;
66567;SDS011;53422;49.296;6.900;2022-12-20T23:44:39;8.13;;;3.90;;